createdAt,value
2022-07-31T00:00:24.508Z,97774.22
2022-07-31T00:02:51.211Z,97772.56
2022-07-31T00:05:18.131Z,97771.63
2022-07-31T00:07:44.847Z,97767.41
2022-07-31T00:10:11.563Z,97773.34
2022-07-31T00:12:38.434Z,97772.13
2022-07-31T00:15:07.015Z,97764.88
2022-07-31T00:17:34.176Z,97772.84
2022-07-31T00:20:00.849Z,97774.56
2022-07-31T00:22:27.606Z,97770.63
2022-07-31T00:24:54.275Z,97775.56
2022-07-31T00:27:21.106Z,97773.06
2022-07-31T00:29:47.787Z,97773.44
2022-07-31T00:32:14.445Z,97779.94
2022-07-31T00:34:42.438Z,97785.34
2022-07-31T00:37:10.058Z,97774.03
2022-07-31T00:39:36.793Z,97783.19
2022-07-31T00:42:03.625Z,97789.56
2022-07-31T00:44:30.220Z,97790.50
2022-07-31T00:46:58.349Z,97791.59
2022-07-31T00:49:25.162Z,97786.06
2022-07-31T00:51:51.880Z,97783.09
2022-07-31T00:54:22.986Z,97783.44
2022-07-31T00:56:50.602Z,97789.28
2022-07-31T00:59:24.411Z,97785.91
2022-07-31T01:01:51.946Z,97785.91
2022-07-31T01:04:19.637Z,97785.56
2022-07-31T01:06:46.502Z,97782.69
2022-07-31T01:09:16.758Z,97782.19
2022-07-31T01:12:15.807Z,97781.72
2022-07-31T01:14:56.936Z,97779.31
2022-07-31T01:17:25.656Z,97793.75
2022-07-31T01:19:53.079Z,97791.47
2022-07-31T01:22:53.862Z,97791.72
2022-07-31T01:25:49.294Z,97788.00
2022-07-31T01:28:37.590Z,97782.19
2022-07-31T01:31:27.116Z,97776.75
2022-07-31T01:34:33.135Z,97783.00
2022-07-31T01:37:17.613Z,97776.28
2022-07-31T01:39:50.739Z,97786.13
2022-07-31T01:42:20.258Z,97789.00
2022-07-31T01:44:53.083Z,97787.56
2022-07-31T01:47:21.565Z,97788.84
2022-07-31T01:49:53.132Z,97782.22
2022-07-31T01:52:20.413Z,97794.56
2022-07-31T01:54:48.675Z,97796.31
2022-07-31T01:57:18.488Z,97789.00
2022-07-31T01:59:46.715Z,97783.97
2022-07-31T02:02:15.574Z,97787.13
2022-07-31T02:04:47.075Z,97788.81
2022-07-31T02:07:15.203Z,97785.44
2022-07-31T02:09:58.268Z,97788.84
2022-07-31T02:12:32.229Z,97798.25
2022-07-31T02:15:02.263Z,97792.59
2022-07-31T02:17:29.368Z,97797.47
2022-07-31T02:20:00.101Z,97795.22
2022-07-31T02:22:27.428Z,97793.16
2022-07-31T02:24:54.311Z,97797.25
2022-07-31T02:27:57.345Z,97794.00
2022-07-31T02:30:10.828Z,97786.19
2022-07-31T02:32:39.242Z,97784.25
2022-07-31T02:35:07.796Z,97795.81
2022-07-31T02:37:37.563Z,97787.34
2022-07-31T02:40:05.961Z,97794.41
2022-07-31T02:42:32.879Z,97804.16
2022-07-31T02:45:01.363Z,97806.38
2022-07-31T02:47:29.401Z,97802.50
2022-07-31T02:49:58.053Z,97803.44
2022-07-31T02:52:26.460Z,97799.94
2022-07-31T02:54:53.752Z,97799.47
2022-07-31T02:57:20.515Z,97789.31
2022-07-31T02:59:47.642Z,97790.88
2022-07-31T03:02:14.341Z,97786.91
2022-07-31T03:04:40.970Z,97792.56
2022-07-31T03:07:08.745Z,97787.84
2022-07-31T03:09:36.402Z,97796.41
2022-07-31T03:12:04.789Z,97793.66
2022-07-31T03:14:34.335Z,97796.53
2022-07-31T03:17:02.782Z,97799.19
2022-07-31T03:19:30.495Z,97796.31
2022-07-31T03:21:57.411Z,97793.22
2022-07-31T03:24:25.816Z,97793.69
2022-07-31T03:26:52.654Z,97785.28
2022-07-31T03:29:39.267Z,97787.56
2022-07-31T03:32:06.946Z,97787.69
2022-07-31T03:34:33.909Z,97783.25
2022-07-31T03:37:00.795Z,97790.59
2022-07-31T03:39:27.483Z,97791.59
2022-07-31T03:41:56.827Z,97790.78
2022-07-31T03:44:24.786Z,97789.19
2022-07-31T03:46:52.049Z,97794.25
2022-07-31T03:49:19.292Z,97785.94
2022-07-31T03:51:46.006Z,97786.78
2022-07-31T03:54:12.971Z,97785.22
2022-07-31T03:56:45.243Z,97782.38
2022-07-31T03:59:13.920Z,97782.47
2022-07-31T04:02:07.044Z,97791.94
2022-07-31T04:04:28.763Z,97789.19
2022-07-31T04:06:55.432Z,97784.63
2022-07-31T04:09:22.154Z,97788.72
2022-07-31T04:11:49.104Z,97789.91
2022-07-31T04:14:15.736Z,97799.16
2022-07-31T04:16:42.530Z,97798.91
2022-07-31T04:19:09.287Z,97802.66
2022-07-31T04:21:36.018Z,97811.66
2022-07-31T04:24:02.696Z,97808.53
2022-07-31T04:26:29.581Z,97811.50
2022-07-31T04:28:56.210Z,97813.19
2022-07-31T04:31:23.866Z,97812.16
2022-07-31T04:33:55.994Z,97817.69
2022-07-31T04:36:30.189Z,97809.94
2022-07-31T04:38:58.799Z,97808.81
2022-07-31T04:41:25.990Z,97811.56
2022-07-31T04:43:52.955Z,97808.81
2022-07-31T04:46:20.276Z,97806.38
2022-07-31T04:48:47.116Z,97806.97
2022-07-31T04:51:20.368Z,97811.28
2022-07-31T04:53:47.403Z,97817.97
2022-07-31T04:56:33.291Z,97813.28
2022-07-31T04:59:01.586Z,97816.66
2022-07-31T05:01:28.411Z,97822.91
2022-07-31T05:03:55.263Z,97819.22
2022-07-31T05:06:22.340Z,97820.06
2022-07-31T05:08:48.955Z,97815.47
2022-07-31T05:11:24.951Z,97815.91
2022-07-31T05:13:57.009Z,97817.78
2022-07-31T05:16:24.283Z,97818.41
2022-07-31T05:18:54.307Z,97818.63
2022-07-31T05:21:21.930Z,97822.94
2022-07-31T05:23:49.870Z,97824.78
2022-07-31T05:26:18.294Z,97829.41
2022-07-31T05:28:46.533Z,97830.63
2022-07-31T05:31:13.699Z,97834.22
2022-07-31T05:33:40.414Z,97833.28
2022-07-31T05:36:07.417Z,97834.72
2022-07-31T05:38:34.235Z,97835.44
2022-07-31T05:41:01.107Z,97838.53
2022-07-31T05:43:27.923Z,97832.38
2022-07-31T05:45:54.895Z,97835.25
2022-07-31T05:48:21.915Z,97832.06
2022-07-31T05:50:49.803Z,97837.41
2022-07-31T05:53:16.982Z,97833.50
2022-07-31T05:55:45.605Z,97835.88
2022-07-31T05:58:16.573Z,97840.91
2022-07-31T06:00:46.185Z,97833.19
2022-07-31T06:03:13.722Z,97836.09
2022-07-31T06:05:41.174Z,97833.44
2022-07-31T06:08:09.693Z,97833.31
2022-07-31T06:10:37.764Z,97831.13
2022-07-31T06:13:05.392Z,97827.53
2022-07-31T06:15:36.248Z,97828.28
2022-07-31T06:18:04.105Z,97831.97
2022-07-31T06:20:31.264Z,97831.66
2022-07-31T06:22:58.188Z,97831.34
2022-07-31T06:25:24.898Z,97829.19
2022-07-31T06:27:59.985Z,97828.69
2022-07-31T06:30:27.982Z,97837.38
2022-07-31T06:32:54.740Z,97839.94
2022-07-31T06:35:21.431Z,97843.91
2022-07-31T06:37:48.151Z,97841.09
2022-07-31T06:40:14.849Z,97843.13
2022-07-31T06:42:42.220Z,97841.59
2022-07-31T06:45:09.895Z,97838.97
2022-07-31T06:47:36.671Z,97842.09
2022-07-31T06:50:04.495Z,97844.84
2022-07-31T06:52:31.191Z,97839.94
2022-07-31T06:54:58.168Z,97847.97
2022-07-31T06:57:24.939Z,97843.13
2022-07-31T06:59:51.626Z,97845.78
2022-07-31T07:02:18.808Z,97833.91
2022-07-31T07:05:04.729Z,97844.56
2022-07-31T07:07:34.906Z,97840.75
2022-07-31T07:10:01.724Z,97837.53
2022-07-31T07:12:28.562Z,97837.88
2022-07-31T07:14:55.304Z,97838.25
2022-07-31T07:17:25.921Z,97830.63
2022-07-31T07:19:55.730Z,97832.63
2022-07-31T07:22:30.101Z,97837.78
2022-07-31T07:24:59.936Z,97831.69
2022-07-31T07:27:26.737Z,97831.16
2022-07-31T07:29:53.371Z,97824.56
2022-07-31T07:32:20.045Z,97820.97
2022-07-31T07:34:46.712Z,97825.66
2022-07-31T07:37:13.582Z,97815.47
2022-07-31T07:39:40.278Z,97821.63
2022-07-31T07:42:07.433Z,97814.81
2022-07-31T07:44:34.252Z,97818.09
2022-07-31T07:47:00.988Z,97805.09
2022-07-31T07:49:27.767Z,97810.81
2022-07-31T07:51:59.070Z,97809.56
2022-07-31T07:54:36.442Z,97804.66
2022-07-31T07:57:03.269Z,97812.34
2022-07-31T07:59:29.902Z,97814.78
2022-07-31T08:01:56.625Z,97800.91
2022-07-31T08:04:23.295Z,97803.13
2022-07-31T08:06:49.897Z,97804.47
2022-07-31T08:09:16.590Z,97811.47
2022-07-31T08:11:43.214Z,97804.47
2022-07-31T08:14:10.324Z,97810.56
2022-07-31T08:16:42.098Z,97799.81
2022-07-31T08:19:08.805Z,97805.72
2022-07-31T08:21:35.766Z,97804.09
2022-07-31T08:24:02.437Z,97805.75
2022-07-31T08:26:52.021Z,97809.13
2022-07-31T08:29:18.754Z,97798.09
2022-07-31T08:31:54.518Z,97795.31
2022-07-31T08:34:31.020Z,97789.19
2022-07-31T08:36:59.742Z,97788.31
2022-07-31T08:39:48.016Z,97781.94
2022-07-31T08:42:15.121Z,97786.97
2022-07-31T08:44:43.312Z,97781.25
2022-07-31T08:47:13.097Z,97783.75
2022-07-31T08:49:49.705Z,97779.31
2022-07-31T08:52:24.300Z,97781.81
2022-07-31T08:54:52.856Z,97781.97
2022-07-31T08:57:20.633Z,97780.56
2022-07-31T08:59:49.103Z,97774.94
2022-07-31T09:02:15.886Z,97787.47
2022-07-31T09:04:42.605Z,97783.94
2022-07-31T09:07:11.203Z,97775.75
2022-07-31T09:09:45.284Z,97780.03
2022-07-31T09:12:33.989Z,97774.19
2022-07-31T09:15:00.948Z,97762.81
2022-07-31T09:17:35.162Z,97762.41
2022-07-31T09:20:02.649Z,97760.59
2022-07-31T09:22:30.659Z,97762.16
2022-07-31T09:25:19.351Z,97753.44
2022-07-31T09:27:48.024Z,97758.91
2022-07-31T09:30:15.573Z,97757.88
2022-07-31T09:32:43.315Z,97753.19
2022-07-31T09:35:12.642Z,97752.69
2022-07-31T09:37:40.258Z,97740.13
2022-07-31T09:40:09.225Z,97749.06
2022-07-31T09:42:48.212Z,97746.91
2022-07-31T09:48:04.341Z,97750.25
2022-07-31T09:50:31.037Z,97748.34
2022-07-31T09:53:00.833Z,97740.69
2022-07-31T09:55:27.923Z,97754.13
2022-07-31T09:57:59.486Z,97740.84
2022-07-31T10:00:27.547Z,97737.16
2022-07-31T10:02:56.536Z,97736.75
2022-07-31T10:05:25.547Z,97732.31
2022-07-31T10:07:56.057Z,97733.97
2022-07-31T10:10:23.388Z,97728.31
2022-07-31T10:12:54.299Z,97728.03
2022-07-31T10:15:23.147Z,97726.81
2022-07-31T10:17:51.946Z,97724.69
2022-07-31T10:20:22.113Z,97729.59
2022-07-31T10:22:53.932Z,97716.97
2022-07-31T10:25:31.194Z,97712.53
2022-07-31T10:27:58.012Z,97718.63
2022-07-31T10:30:28.198Z,97711.97
2022-07-31T10:32:57.049Z,97724.47
2022-07-31T10:35:23.966Z,97715.53
2022-07-31T10:38:01.540Z,97711.53
2022-07-31T10:40:42.953Z,97714.53
2022-07-31T10:43:27.281Z,97716.06
2022-07-31T10:45:55.127Z,97703.69
2022-07-31T10:48:22.938Z,97712.75
2022-07-31T10:51:04.464Z,97702.59
2022-07-31T10:53:34.615Z,97704.88
2022-07-31T10:56:18.112Z,97707.53
2022-07-31T10:58:53.401Z,97720.09
2022-07-31T11:01:20.398Z,97705.81
2022-07-31T11:03:49.771Z,97697.22
2022-07-31T11:06:17.825Z,97704.22
2022-07-31T11:08:49.379Z,97706.75
2022-07-31T11:11:16.394Z,97703.31
2022-07-31T11:13:55.462Z,97694.50
2022-07-31T11:16:22.612Z,97694.38
2022-07-31T11:19:01.166Z,97691.91
2022-07-31T11:21:40.606Z,97694.69
2022-07-31T11:24:18.909Z,97700.63
2022-07-31T11:26:52.798Z,97699.78
2022-07-31T11:30:01.279Z,97688.75
2022-07-31T11:32:25.940Z,97693.16
2022-07-31T11:34:59.810Z,97695.94
2022-07-31T11:37:41.181Z,97696.78
2022-07-31T11:40:16.220Z,97687.25
2022-07-31T11:42:46.341Z,97692.91
2022-07-31T11:45:16.734Z,97689.06
2022-07-31T11:48:11.531Z,97691.44
2022-07-31T11:50:42.606Z,97684.81
2022-07-31T11:53:09.619Z,97686.47
2022-07-31T11:55:50.839Z,97675.88
2022-07-31T11:58:20.481Z,97679.13
2022-07-31T12:01:07.347Z,97671.88
2022-07-31T12:03:36.671Z,97679.97
2022-07-31T12:06:05.091Z,97678.25
2022-07-31T12:08:32.438Z,97672.97
2022-07-31T12:11:01.491Z,97672.66
2022-07-31T12:13:28.931Z,97672.25
2022-07-31T12:16:08.109Z,97685.63
2022-07-31T12:18:52.535Z,97675.53
2022-07-31T12:21:20.594Z,97673.19
2022-07-31T12:23:52.382Z,97675.97
2022-07-31T12:26:37.183Z,97669.75
2022-07-31T12:29:06.916Z,97669.16
2022-07-31T12:31:54.456Z,97667.81
2022-07-31T12:34:42.293Z,97681.69
2022-07-31T12:37:12.026Z,97672.22
2022-07-31T12:39:59.547Z,97668.53
2022-07-31T12:42:40.654Z,97661.69
2022-07-31T12:45:17.819Z,97671.69
2022-07-31T12:47:51.281Z,97668.84
2022-07-31T12:50:20.092Z,97660.19
2022-07-31T12:52:46.817Z,97662.22
2022-07-31T12:55:13.540Z,97670.78
2022-07-31T12:57:51.049Z,97661.72
2022-07-31T13:00:20.237Z,97662.34
2022-07-31T13:02:47.022Z,97655.94
2022-07-31T13:05:13.948Z,97644.06
2022-07-31T13:07:40.663Z,97647.50
2022-07-31T13:10:19.958Z,97640.41
2022-07-31T13:12:51.525Z,97644.56
2022-07-31T13:15:20.077Z,97643.44
2022-07-31T13:17:50.491Z,97647.34
2022-07-31T13:20:17.936Z,97640.00
2022-07-31T13:22:44.631Z,97646.44
2022-07-31T13:25:11.301Z,97647.47
2022-07-31T13:27:38.112Z,97649.66
2022-07-31T13:30:05.480Z,97650.66
2022-07-31T13:32:32.245Z,97649.16
2022-07-31T13:35:27.235Z,97631.69
2022-07-31T13:37:46.657Z,97642.44
2022-07-31T13:40:13.888Z,97641.78
2022-07-31T13:42:40.499Z,97638.19
2022-07-31T13:45:08.788Z,97636.75
2022-07-31T13:47:50.217Z,97636.47
2022-07-31T13:50:18.963Z,97640.22
2022-07-31T13:52:45.908Z,97633.38
2022-07-31T13:55:12.538Z,97630.13
2022-07-31T13:57:39.309Z,97631.25
2022-07-31T14:00:07.429Z,97635.72
2022-07-31T14:02:34.162Z,97632.13
2022-07-31T14:05:00.973Z,97633.50
2022-07-31T14:07:48.029Z,97631.34
2022-07-31T14:10:19.946Z,97623.72
2022-07-31T14:12:48.175Z,97624.66
2022-07-31T14:15:15.215Z,97618.41
2022-07-31T14:17:41.911Z,97619.50
2022-07-31T14:20:09.390Z,97615.41
2022-07-31T14:22:36.197Z,97620.44
2022-07-31T14:25:03.433Z,97614.25
2022-07-31T14:27:30.464Z,97614.03
2022-07-31T14:29:57.117Z,97612.72
2022-07-31T14:32:25.156Z,97613.97
2022-07-31T14:34:52.320Z,97622.94
2022-07-31T14:37:20.467Z,97618.50
2022-07-31T14:39:47.379Z,97618.31
2022-07-31T14:42:14.378Z,97608.59
2022-07-31T14:44:42.278Z,97616.09
2022-07-31T14:47:11.155Z,97614.16
2022-07-31T14:50:09.796Z,97613.44
2022-07-31T14:52:25.307Z,97611.41
2022-07-31T14:54:53.994Z,97613.56
2022-07-31T14:57:22.548Z,97605.44
2022-07-31T14:59:50.261Z,97604.66
2022-07-31T15:02:21.928Z,97601.06
2022-07-31T15:04:49.462Z,97613.81
2022-07-31T15:07:34.985Z,97611.16
2022-07-31T15:10:07.641Z,97607.56
2022-07-31T15:12:34.737Z,97601.38
2022-07-31T15:15:01.664Z,97605.59
2022-07-31T15:17:28.714Z,97609.75
2022-07-31T15:19:55.345Z,97603.53
2022-07-31T15:22:22.083Z,97610.13
2022-07-31T15:24:50.113Z,97598.28
2022-07-31T15:27:24.105Z,97604.72
2022-07-31T15:30:04.457Z,97597.38
2022-07-31T15:32:33.791Z,97593.91
2022-07-31T15:35:00.525Z,97601.19
2022-07-31T15:37:27.396Z,97595.00
2022-07-31T15:40:02.465Z,97593.50
2022-07-31T15:42:37.675Z,97590.66
2022-07-31T15:45:04.912Z,97592.31
2022-07-31T15:47:31.565Z,97591.44
2022-07-31T15:49:58.447Z,97589.13
2022-07-31T15:52:25.438Z,97582.81
2022-07-31T15:54:52.853Z,97573.56
2022-07-31T15:57:23.786Z,97572.94
2022-07-31T15:59:51.698Z,97578.69
2022-07-31T16:02:18.352Z,97575.88
2022-07-31T16:04:53.491Z,97567.28
2022-07-31T16:08:30.039Z,97568.63
2022-07-31T16:10:17.467Z,97554.75
2022-07-31T16:12:46.231Z,97559.84
2022-07-31T16:15:13.885Z,97559.16
2022-07-31T16:17:41.165Z,97552.00
2022-07-31T16:20:25.375Z,97554.66
2022-07-31T16:22:58.724Z,97553.31
2022-07-31T16:25:26.972Z,97544.28
2022-07-31T16:27:54.498Z,97543.47
2022-07-31T16:30:22.112Z,97546.47
2022-07-31T16:32:49.633Z,97538.44
2022-07-31T16:35:16.317Z,97534.06
2022-07-31T16:37:51.998Z,97535.09
2022-07-31T16:40:28.459Z,97531.84
2022-07-31T16:43:50.053Z,97533.44
2022-07-31T16:45:53.673Z,97537.41
2022-07-31T16:48:20.620Z,97535.88
2022-07-31T16:50:48.228Z,97531.19
2022-07-31T16:54:12.112Z,97531.84
2022-07-31T16:56:07.566Z,97532.44
2022-07-31T16:58:34.816Z,97537.50
2022-07-31T17:01:03.960Z,97536.72
2022-07-31T17:03:59.521Z,97529.16
2022-07-31T17:06:17.507Z,97538.88
2022-07-31T17:08:44.420Z,97535.34
2022-07-31T17:11:11.096Z,97540.31
2022-07-31T17:13:37.721Z,97537.41
2022-07-31T17:16:05.143Z,97539.56
2022-07-31T17:18:31.810Z,97532.63
2022-07-31T17:20:59.747Z,97536.72
2022-07-31T17:23:42.777Z,97533.28
2022-07-31T17:26:21.116Z,97533.28
2022-07-31T17:28:52.159Z,97535.28
2022-07-31T17:31:19.697Z,97533.88
2022-07-31T17:33:59.328Z,97540.09
2022-07-31T17:36:28.983Z,97530.91
2022-07-31T17:38:56.691Z,97532.91
2022-07-31T17:41:25.348Z,97541.22
2022-07-31T17:43:54.019Z,97542.47
2022-07-31T17:46:28.521Z,97538.06
2022-07-31T17:49:06.118Z,97549.22
2022-07-31T17:51:33.234Z,97543.53
2022-07-31T17:54:00.154Z,97539.25
2022-07-31T17:56:27.173Z,97550.22
2022-07-31T17:58:55.844Z,97548.03
2022-07-31T18:01:28.425Z,97542.25
2022-07-31T18:03:55.667Z,97551.22
2022-07-31T18:06:22.265Z,97556.66
2022-07-31T18:08:48.868Z,97548.88
2022-07-31T18:11:15.496Z,97553.50
2022-07-31T18:13:48.743Z,97554.03
2022-07-31T18:16:18.968Z,97556.06
2022-07-31T18:18:46.087Z,97553.84
2022-07-31T18:21:13.436Z,97548.91
2022-07-31T18:23:47.127Z,97551.50
2022-07-31T18:26:14.305Z,97555.50
2022-07-31T18:28:41.141Z,97557.50
2022-07-31T18:31:13.253Z,97561.66
2022-07-31T18:33:54.846Z,97558.03
2022-07-31T18:36:21.710Z,97568.38
2022-07-31T18:38:48.402Z,97565.47
2022-07-31T18:41:15.120Z,97565.34
2022-07-31T18:43:41.793Z,97571.47
2022-07-31T18:46:08.484Z,97570.78
2022-07-31T18:48:35.144Z,97564.41
2022-07-31T18:51:05.003Z,97569.06
2022-07-31T18:53:32.990Z,97568.28
2022-07-31T18:55:59.643Z,97568.91
2022-07-31T18:58:26.451Z,97572.94
2022-07-31T19:00:55.280Z,97564.56
2022-07-31T19:03:23.559Z,97570.56
2022-07-31T19:05:52.975Z,97576.13
2022-07-31T19:08:20.405Z,97569.91
2022-07-31T19:10:49.362Z,97577.41
2022-07-31T19:13:19.374Z,97573.81
2022-07-31T19:15:47.792Z,97577.97
2022-07-31T19:18:15.254Z,97580.75
2022-07-31T19:20:59.881Z,97577.81
2022-07-31T19:23:33.558Z,97586.59
2022-07-31T19:26:03.754Z,97585.81
2022-07-31T19:28:34.899Z,97582.09
2022-07-31T19:31:01.701Z,97584.72
2022-07-31T19:33:28.451Z,97586.00
2022-07-31T19:36:00.719Z,97588.72
2022-07-31T19:38:29.266Z,97581.66
2022-07-31T19:40:56.210Z,97577.38
2022-07-31T19:43:23.538Z,97588.34
2022-07-31T19:46:09.381Z,97583.41
2022-07-31T19:48:37.071Z,97586.28
2022-07-31T19:51:04.461Z,97587.53
2022-07-31T19:53:31.441Z,97585.81
2022-07-31T19:55:58.181Z,97592.00
2022-07-31T19:58:24.803Z,97590.59
2022-07-31T20:00:51.411Z,97586.94
2022-07-31T20:03:18.111Z,97587.66
2022-07-31T20:05:44.834Z,97586.06
2022-07-31T20:08:11.419Z,97582.56
2022-07-31T20:10:38.076Z,97591.47
2022-07-31T20:13:04.947Z,97588.69
2022-07-31T20:15:52.660Z,97582.41
2022-07-31T20:18:27.725Z,97575.44
2022-07-31T20:21:04.161Z,97576.06
2022-07-31T20:23:36.739Z,97578.03
2022-07-31T20:26:03.677Z,97578.13
2022-07-31T20:28:30.563Z,97571.72
2022-07-31T20:30:57.336Z,97573.75
2022-07-31T20:33:24.086Z,97574.50
2022-07-31T20:35:50.788Z,97570.25
2022-07-31T20:38:22.121Z,97576.53
2022-07-31T20:40:53.654Z,97571.03
2022-07-31T20:43:26.905Z,97568.91
2022-07-31T20:45:57.136Z,97568.19
2022-07-31T20:48:27.058Z,97566.72
2022-07-31T20:50:53.741Z,97566.13
2022-07-31T20:53:21.598Z,97565.41
2022-07-31T20:55:50.035Z,97559.84
2022-07-31T20:58:21.714Z,97562.69
2022-07-31T21:00:49.360Z,97564.22
2022-07-31T21:03:17.039Z,97563.41
2022-07-31T21:05:45.012Z,97560.00
2022-07-31T21:08:12.207Z,97559.91
2022-07-31T21:10:39.061Z,97560.00
2022-07-31T21:13:05.899Z,97558.66
2022-07-31T21:15:41.752Z,97551.03
2022-07-31T21:18:16.042Z,97547.44
2022-07-31T21:20:49.982Z,97549.84
2022-07-31T21:23:23.715Z,97548.34
2022-07-31T21:25:54.954Z,97551.75
2022-07-31T21:28:22.660Z,97549.50
2022-07-31T21:30:49.636Z,97550.84
2022-07-31T21:33:18.125Z,97555.00
2022-07-31T21:35:45.878Z,97547.84
2022-07-31T21:38:15.259Z,97553.25
2022-07-31T21:40:42.455Z,97555.16
2022-07-31T21:43:09.559Z,97568.34
2022-07-31T21:45:51.198Z,97562.88
2022-07-31T21:48:25.789Z,97565.72
2022-07-31T21:50:53.728Z,97563.19
2022-07-31T21:53:20.777Z,97561.50
2022-07-31T21:55:47.534Z,97563.59
2022-07-31T21:58:14.324Z,97562.94
2022-07-31T22:00:41.087Z,97553.88
2022-07-31T22:03:07.825Z,97547.47
2022-07-31T22:05:53.476Z,97549.44
2022-07-31T22:08:20.616Z,97564.13
2022-07-31T22:10:50.442Z,97567.69
2022-07-31T22:13:17.965Z,97567.53
2022-07-31T22:15:56.993Z,97575.25
2022-07-31T22:18:31.314Z,97570.41
2022-07-31T22:21:00.020Z,97569.59
2022-07-31T22:23:27.633Z,97572.53
2022-07-31T22:25:55.336Z,97565.56
2022-07-31T22:28:23.596Z,97566.81
2022-07-31T22:30:50.827Z,97569.16
2022-07-31T22:33:17.946Z,97569.91
2022-07-31T22:35:44.917Z,97558.91
2022-07-31T22:38:26.778Z,97549.19
2022-07-31T22:40:53.498Z,97551.97
2022-07-31T22:44:11.588Z,97549.19
2022-07-31T22:46:07.368Z,97546.34
2022-07-31T22:48:34.288Z,97551.09
2022-07-31T22:51:01.547Z,97544.75
2022-07-31T22:53:28.183Z,97553.47
2022-07-31T22:55:55.098Z,97552.78
2022-07-31T22:58:22.652Z,97549.13
2022-07-31T23:00:49.862Z,97546.19
2022-07-31T23:03:17.033Z,97544.69
2022-07-31T23:06:12.219Z,97546.31
2022-07-31T23:08:30.321Z,97540.75
2022-07-31T23:10:56.947Z,97547.53
2022-07-31T23:13:23.570Z,97537.78
2022-07-31T23:15:50.340Z,97541.97
2022-07-31T23:18:16.990Z,97536.16
2022-07-31T23:20:43.659Z,97537.63
2022-07-31T23:23:10.283Z,97540.38
2022-07-31T23:25:36.899Z,97545.31
2022-07-31T23:28:03.519Z,97541.81
2022-07-31T23:30:30.347Z,97541.09
2022-07-31T23:32:56.984Z,97544.59
2022-07-31T23:35:23.689Z,97541.00
2022-07-31T23:37:50.343Z,97558.38
2022-07-31T23:40:16.986Z,97560.56
2022-07-31T23:42:43.683Z,97561.84
2022-07-31T23:45:12.824Z,97566.41
2022-07-31T23:47:44.743Z,97571.16
2022-07-31T23:50:12.626Z,97571.31
2022-07-31T23:52:39.456Z,97572.84
2022-07-31T23:55:06.425Z,97577.69
2022-07-31T23:57:34.448Z,97571.31
